Time;durP1;ratioP1;P1;durP2;ratioP2;P2;SDS_P1;SDS_P2;PMS_P1;PMS_P2;Temp;Humidity;BMP_temperature;BMP_pressure;BME280_temperature;BME280_humidity;BME280_pressure;Samples;Min_cycle;Max_cycle;Signal;HPM_P1;HPM_P2
2022/08/12 04:06:45;;;;;;;3.17;2.87;;;15.90;92.70;;;;;;4953122;29;20479;-72
2022/08/12 04:09:12;;;;;;;2.93;2.73;;;15.80;93.10;;;;;;4955245;28;20900;-71
2022/08/12 04:14:27;;;;;;;2.60;2.40;;;15.80;93.40;;;;;;4955219;29;20487;-72
2022/08/12 04:16:53;;;;;;;5.13;2.97;;;15.80;93.70;;;;;;4955579;28;20404;-71
2022/08/12 04:19:19;;;;;;;2.63;2.53;;;15.80;93.80;;;;;;4954916;28;20407;-71
2022/08/12 04:21:45;;;;;;;2.50;2.40;;;15.80;94.00;;;;;;4955176;28;20743;-72
2022/08/12 04:24:12;;;;;;;3.43;3.23;;;15.70;94.20;;;;;;4954684;28;20471;-71
2022/08/12 04:26:39;;;;;;;3.77;3.03;;;15.70;94.40;;;;;;4954453;28;20420;-71
2022/08/12 04:29:05;;;;;;;3.23;3.03;;;15.70;94.70;;;;;;4954754;28;20451;-71
2022/08/12 04:31:32;;;;;;;4.00;3.60;;;15.70;94.70;;;;;;4955119;28;20412;-71
2022/08/12 04:33:59;;;;;;;2.83;2.63;;;15.70;94.70;;;;;;4953376;28;20447;-71
2022/08/12 04:36:25;;;;;;;3.27;2.77;;;15.70;94.80;;;;;;4955237;28;20440;-71
2022/08/12 04:38:53;;;;;;;2.80;2.53;;;15.90;94.90;;;;;;4955038;28;20885;-71
2022/08/12 04:41:19;;;;;;;2.33;2.13;;;16.20;94.80;;;;;;4954715;29;20431;-72
2022/08/12 04:43:46;;;;;;;3.37;3.07;;;16.50;93.90;;;;;;4956874;28;21065;-71
2022/08/12 04:46:13;;;;;;;3.20;3.00;;;16.70;92.80;;;;;;4958847;28;20466;-72
2022/08/12 04:48:38;;;;;;;3.00;2.80;;;16.90;92.10;;;;;;4958969;29;20417;-72
2022/08/12 04:51:05;;;;;;;2.83;2.40;;;17.20;91.60;;;;;;4957231;29;20459;-72
2022/08/12 04:53:31;;;;;;;4.20;2.63;;;17.40;91.00;;;;;;4957851;28;20197;-72
2022/08/12 04:55:57;;;;;;;3.37;3.07;;;17.70;90.00;;;;;;4958536;28;20429;-72
2022/08/12 04:58:22;;;;;;;3.20;2.90;;;17.80;88.70;;;;;;4957343;29;20401;-71
2022/08/12 05:00:48;;;;;;;3.03;2.77;;;17.90;88.10;;;;;;4957250;29;20181;-71
2022/08/12 05:03:14;;;;;;;3.13;2.93;;;18.00;88.30;;;;;;4958225;29;20182;-72
2022/08/12 05:05:41;;;;;;;5.73;2.77;;;18.30;87.90;;;;;;4958448;28;20438;-73
2022/08/12 05:08:15;;;;;;;4.97;3.23;;;18.70;87.20;;;;;;4957792;28;20586;-74
2022/08/12 05:10:45;;;;;;;2.50;2.30;;;19.10;84.60;;;;;;4958210;29;20896;-73
2022/08/12 05:13:24;;;;;;;3.03;2.77;;;19.30;82.10;;;;;;4956715;28;20423;-69
2022/08/12 05:15:50;;;;;;;4.67;3.13;;;19.50;80.60;;;;;;4957842;28;20453;-72
2022/08/12 05:18:16;;;;;;;3.67;2.90;;;19.50;80.10;;;;;;4958228;28;20475;-71
2022/08/12 05:20:42;;;;;;;2.77;2.50;;;19.50;79.20;;;;;;4956794;29;20426;-75
2022/08/12 05:23:16;;;;;;;2.60;2.50;;;19.50;78.20;;;;;;4957738;29;20192;-75
2022/08/12 05:25:49;;;;;;;2.67;2.57;;;19.40;78.90;;;;;;4957991;28;20510;-74
2022/08/12 05:28:15;;;;;;;3.50;3.30;;;19.20;78.90;;;;;;4956849;29;20434;-75
2022/08/12 05:30:42;;;;;;;3.07;2.87;;;19.10;79.60;;;;;;4957543;28;21038;-75
2022/08/12 05:33:09;;;;;;;2.90;2.80;;;19.00;79.70;;;;;;4957659;28;20497;-74
2022/08/12 05:35:38;;;;;;;9.07;3.20;;;19.00;80.20;;;;;;4957811;28;20423;-74
2022/08/12 05:40:58;;;;;;;3.60;3.30;;;19.30;81.00;;;;;;4958226;29;21024;-66
2022/08/12 05:43:23;;;;;;;2.97;2.77;;;19.50;79.20;;;;;;4957436;28;20795;-64
2022/08/12 05:45:50;;;;;;;3.13;2.90;;;19.50;78.80;;;;;;4957542;28;20437;-64
2022/08/12 05:48:16;;;;;;;3.30;3.00;;;19.50;79.20;;;;;;4957876;28;20201;-64
2022/08/12 05:50:44;;;;;;;3.23;2.93;;;19.40;79.60;;;;;;4957516;28;20439;-64
2022/08/12 05:53:10;;;;;;;3.20;3.00;;;19.50;80.00;;;;;;4957249;28;20892;-65
2022/08/12 05:55:36;;;;;;;4.00;3.47;;;19.50;78.90;;;;;;4956499;28;20416;-64
2022/08/12 05:58:03;;;;;;;6.57;3.30;;;19.70;78.80;;;;;;4957810;29;20508;-64
2022/08/12 06:00:30;;;;;;;3.03;2.83;;;19.80;79.20;;;;;;4957411;28;20534;-64
2022/08/12 06:03:00;;;;;;;4.53;3.10;;;20.00;78.50;;;;;;4957123;28;20861;-66
2022/08/12 06:05:26;;;;;;;3.40;3.00;;;20.10;77.90;;;;;;4957249;28;20471;-65
2022/08/12 06:07:56;;;;;;;4.67;3.70;;;20.20;77.30;;;;;;4957335;28;20507;-65
2022/08/12 06:10:22;;;;;;;4.13;3.40;;;20.20;76.70;;;;;;4957342;28;20456;-66
2022/08/12 06:12:49;;;;;;;3.17;2.97;;;20.30;76.70;;;;;;4956851;28;20411;-65
2022/08/12 06:15:19;;;;;;;4.60;2.77;;;20.40;76.60;;;;;;4956663;28;20448;-65
2022/08/12 06:17:45;;;;;;;3.73;3.53;;;20.40;75.50;;;;;;4957137;28;20407;-65
2022/08/12 06:20:15;;;;;;;3.47;3.17;;;20.40;76.40;;;;;;4957212;28;20408;-65
2022/08/12 06:22:44;;;;;;;3.70;2.67;;;20.40;76.70;;;;;;4956941;28;20478;-65
2022/08/12 06:25:17;;;;;;;3.47;3.17;;;20.40;77.70;;;;;;4957015;28;20429;-65
2022/08/12 06:27:48;;;;;;;3.03;2.80;;;20.40;77.10;;;;;;4956597;28;20451;-65
2022/08/12 06:30:15;;;;;;;2.90;2.70;;;20.50;76.40;;;;;;4956709;28;20546;-65
2022/08/12 06:32:42;;;;;;;3.20;2.90;;;20.60;76.00;;;;;;4956262;28;20459;-65
2022/08/12 06:35:09;;;;;;;2.43;2.33;;;20.70;75.80;;;;;;4955536;28;20496;-66
2022/08/12 06:37:40;;;;;;;3.37;3.03;;;20.70;74.70;;;;;;4956697;28;20387;-65
2022/08/12 06:40:08;;;;;;;2.83;2.60;;;20.80;74.00;;;;;;4956708;28;20416;-65
2022/08/12 06:42:47;;;;;;;2.60;2.50;;;21.00;73.60;;;;;;4957110;29;20447;-65
2022/08/12 06:45:17;;;;;;;2.47;2.33;;;21.10;72.10;;;;;;4956536;28;20487;-69
2022/08/12 06:47:43;;;;;;;2.80;2.67;;;21.30;71.60;;;;;;4956848;28;20921;-68
2022/08/12 06:50:15;;;;;;;2.53;2.33;;;21.30;71.60;;;;;;4956649;28;20833;-73
2022/08/12 06:52:45;;;;;;;3.53;2.80;;;21.40;71.00;;;;;;4955029;29;20787;-72
2022/08/12 06:55:14;;;;;;;3.20;2.77;;;21.40;69.90;;;;;;4956469;28;20416;-71
2022/08/12 06:58:01;;;;;;;2.47;2.33;;;21.40;70.20;;;;;;4955052;29;20500;-74
2022/08/12 07:00:30;;;;;;;2.80;2.60;;;21.60;69.60;;;;;;4956422;28;20759;-67
2022/08/12 07:02:56;;;;;;;2.13;2.00;;;21.60;70.00;;;;;;4956322;28;20406;-66
2022/08/12 07:05:23;;;;;;;3.40;3.10;;;21.60;70.20;;;;;;4955859;28;20464;-66
2022/08/12 07:08:12;;;;;;;4.73;2.53;;;21.60;70.70;;;;;;4956344;28;20452;-65
2022/08/12 07:10:44;;;;;;;2.57;2.37;;;21.60;70.20;;;;;;4956335;28;20588;-66
2022/08/12 07:13:10;;;;;;;3.03;2.83;;;21.70;70.90;;;;;;4954144;29;20485;-66
2022/08/12 07:15:36;;;;;;;2.97;2.77;;;21.80;70.50;;;;;;4956179;28;20458;-66
2022/08/12 07:18:16;;;;;;;6.30;3.20;;;21.80;70.40;;;;;;4954602;29;20413;-66
2022/08/12 07:20:43;;;;;;;3.00;2.30;;;21.90;69.70;;;;;;4955842;28;20913;-67
2022/08/12 07:23:09;;;;;;;2.80;2.37;;;22.00;69.10;;;;;;4955406;28;20827;-65
2022/08/12 07:25:36;;;;;;;2.70;2.50;;;22.10;68.90;;;;;;4955814;29;20413;-65
2022/08/12 07:28:23;;;;;;;5.53;2.63;;;22.20;67.90;;;;;;4954299;29;20557;-65
2022/08/12 07:30:51;;;;;;;4.77;2.37;;;22.30;67.60;;;;;;4954949;29;20496;-67
2022/08/12 07:33:21;;;;;;;2.60;2.40;;;22.50;67.10;;;;;;4955193;28;20413;-66
2022/08/12 07:35:47;;;;;;;2.63;2.43;;;22.80;65.60;;;;;;4955845;28;20401;-68
2022/08/12 07:38:23;;;;;;;2.60;2.37;;;23.10;64.80;;;;;;4955826;28;20415;-67
2022/08/12 07:41:04;;;;;;;2.77;2.60;;;23.50;64.00;;;;;;4955677;28;20415;-67
2022/08/12 07:43:34;;;;;;;1.93;1.83;;;24.10;63.00;;;;;;4954879;28;20452;-67
2022/08/12 07:46:01;;;;;;;2.27;2.10;;;24.80;61.60;;;;;;4955771;28;20508;-67
2022/08/12 07:48:33;;;;;;;2.23;2.13;;;25.80;59.00;;;;;;4954355;29;20415;-67
2022/08/12 07:50:59;;;;;;;2.07;1.97;;;26.80;56.60;;;;;;4955757;28;20822;-68
2022/08/12 07:53:24;;;;;;;2.20;2.07;;;28.00;54.20;;;;;;4955119;28;20413;-69
2022/08/12 07:55:50;;;;;;;2.30;2.10;;;28.90;52.90;;;;;;4955362;29;20511;-67
2022/08/12 07:58:16;;;;;;;2.43;2.23;;;29.70;52.00;;;;;;4955282;29;20193;-69
2022/08/12 08:00:42;;;;;;;2.70;2.53;;;30.40;50.70;;;;;;4938488;29;20641;-69
2022/08/12 08:03:07;;;;;;;3.70;2.53;;;31.20;49.20;;;;;;4955491;28;20196;-67
2022/08/12 08:05:52;;;;;;;2.93;2.50;;;32.00;48.00;;;;;;4954764;28;20432;-66
2022/08/12 08:08:21;;;;;;;3.10;2.90;;;32.80;47.40;;;;;;4936061;28;20182;-67
2022/08/12 08:10:48;;;;;;;3.10;2.80;;;33.80;45.70;;;;;;4935976;29;20540;-66
2022/08/12 08:13:15;;;;;;;2.27;2.17;;;34.60;43.90;;;;;;4935910;28;20928;-67
2022/08/12 08:15:44;;;;;;;2.40;2.30;;;35.00;43.10;;;;;;4935999;29;20418;-65
2022/08/12 08:18:12;;;;;;;2.60;2.40;;;35.30;42.40;;;;;;4935532;29;20425;-66
2022/08/12 08:20:42;;;;;;;2.40;2.20;;;35.50;41.90;;;;;;4940880;29;20440;-66
2022/08/12 08:23:17;;;;;;;2.77;2.13;;;35.90;41.30;;;;;;4955099;28;20775;-65
2022/08/12 08:25:44;;;;;;;4.93;2.17;;;36.10;40.70;;;;;;4955513;29;20419;-64
2022/08/12 08:28:13;;;;;;;2.60;2.40;;;36.40;40.90;;;;;;4955092;28;20515;-65
2022/08/12 08:30:44;;;;;;;2.23;2.13;;;36.50;40.50;;;;;;4953058;29;20534;-65
2022/08/12 08:33:12;;;;;;;2.37;2.27;;;36.70;40.20;;;;;;4954156;28;20436;-65
2022/08/12 08:35:42;;;;;;;2.40;2.30;;;37.30;39.70;;;;;;4955342;28;20759;-65
2022/08/12 08:38:10;;;;;;;2.23;2.13;;;37.80;39.20;;;;;;4955288;28;20836;-66
2022/08/12 08:43:22;;;;;;;2.10;2.00;;;38.20;38.40;;;;;;4954661;29;20561;-67
2022/08/12 08:45:48;;;;;;;2.00;1.90;;;38.80;38.30;;;;;;4954755;28;20523;-65
2022/08/12 08:48:15;;;;;;;2.40;2.30;;;39.30;37.10;;;;;;4955106;28;20180;-65
2022/08/12 08:50:41;;;;;;;2.43;2.33;;;39.60;36.80;;;;;;4955090;28;20208;-66
2022/08/12 08:53:07;;;;;;;2.93;2.73;;;39.60;36.20;;;;;;4954122;28;20433;-67
2022/08/12 08:55:34;;;;;;;2.60;2.50;;;39.60;36.30;;;;;;4954909;28;20428;-66
2022/08/12 08:58:00;;;;;;;2.20;2.10;;;39.50;35.80;;;;;;4954515;28;20421;-67
2022/08/12 09:00:25;;;;;;;2.40;2.20;;;39.10;36.00;;;;;;4954815;28;20420;-67
2022/08/12 09:02:51;;;;;;;2.90;2.80;;;39.00;35.80;;;;;;4954273;28;20774;-67
2022/08/12 09:05:17;;;;;;;2.40;2.30;;;38.90;36.00;;;;;;4954679;28;20303;-65
2022/08/12 09:07:48;;;;;;;1.93;1.83;;;38.40;36.10;;;;;;4954720;28;20227;-68
2022/08/12 09:10:18;;;;;;;2.83;2.63;;;38.50;36.50;;;;;;4955048;28;20460;-68
2022/08/12 09:15:30;;;;;;;2.70;2.50;;;38.30;36.40;;;;;;4954142;29;20429;-68
2022/08/12 09:17:57;;;;;;;2.23;2.13;;;38.30;36.10;;;;;;4954753;28;20436;-68
2022/08/12 09:20:28;;;;;;;2.33;2.23;;;38.40;35.90;;;;;;4954547;28;20399;-67
2022/08/12 09:22:55;;;;;;;1.80;1.70;;;38.70;35.70;;;;;;4954496;28;20827;-67
2022/08/12 09:25:25;;;;;;;2.30;2.20;;;38.80;34.90;;;;;;4954647;28;20436;-66
2022/08/12 09:27:54;;;;;;;2.37;2.17;;;38.80;35.20;;;;;;4954761;28;20405;-68
2022/08/12 09:30:21;;;;;;;2.00;1.90;;;38.60;35.40;;;;;;4957105;28;20459;-68
2022/08/12 09:32:51;;;;;;;2.07;1.97;;;38.40;35.30;;;;;;4957579;28;20420;-67
2022/08/12 09:35:22;;;;;;;1.90;1.80;;;38.20;35.00;;;;;;4957897;28;20432;-66
2022/08/12 09:37:49;;;;;;;1.70;1.60;;;37.70;35.00;;;;;;4957994;28;20444;-66
2022/08/12 09:40:28;;;;;;;2.20;2.10;;;37.30;34.70;;;;;;4957869;28;20436;-66
2022/08/12 09:45:40;;;;;;;2.20;2.00;;;36.50;35.80;;;;;;4957968;29;20411;-64
2022/08/12 09:48:07;;;;;;;3.90;2.50;;;36.40;36.00;;;;;;4957168;28;20483;-66
2022/08/12 09:50:34;;;;;;;1.93;1.83;;;36.40;36.20;;;;;;4957671;28;20511;-66
2022/08/12 09:53:08;;;;;;;1.90;1.80;;;36.60;35.60;;;;;;4957475;28;20512;-66
2022/08/12 09:55:36;;;;;;;2.67;2.57;;;36.70;35.60;;;;;;4957854;28;20442;-65
2022/08/12 09:58:03;;;;;;;2.23;2.03;;;36.80;35.80;;;;;;4957138;28;20456;-65
2022/08/12 10:00:29;;;;;;;2.30;2.20;;;37.00;35.50;;;;;;4957651;28;20405;-65
2022/08/12 10:03:07;;;;;;;2.03;1.93;;;37.30;34.90;;;;;;4957535;29;20476;-66
2022/08/12 10:05:35;;;;;;;1.93;1.83;;;37.40;34.60;;;;;;4957028;28;20243;-65
2022/08/12 10:08:02;;;;;;;2.10;1.90;;;37.10;35.00;;;;;;4957648;28;20475;-64
2022/08/12 10:10:28;;;;;;;2.00;1.90;;;36.40;35.70;;;;;;4957400;28;20517;-71
2022/08/12 10:15:44;;;;;;;1.80;1.70;;;35.70;36.60;;;;;;4957244;29;20243;-75
2022/08/12 10:18:11;;;;;;;2.00;1.90;;;35.50;36.80;;;;;;4957487;28;20430;-73
2022/08/12 10:20:40;;;;;;;2.00;1.90;;;35.50;36.90;;;;;;4957004;28;20435;-78
2022/08/12 10:23:07;;;;;;;1.83;1.73;;;35.50;36.70;;;;;;4956692;28;20475;-73
2022/08/12 10:31:03;;;;;;;2.20;2.10;;;35.70;36.60;;;;;;4956903;29;21037;-67
2022/08/12 10:33:29;;;;;;;2.10;2.00;;;35.70;37.00;;;;;;4956493;28;20507;-74
2022/08/12 10:35:57;;;;;;;2.13;2.03;;;35.50;37.00;;;;;;4955579;29;20919;-74
2022/08/12 10:38:23;;;;;;;2.17;2.00;;;35.10;37.10;;;;;;4957056;28;20495;-65
2022/08/12 10:43:42;;;;;;;1.97;1.80;;;34.70;37.40;;;;;;4956017;28;20519;-65
2022/08/12 10:46:16;;;;;;;8.83;1.97;;;34.20;36.90;;;;;;4954811;29;20776;-64
2022/08/12 10:48:50;;;;;;;2.00;1.90;;;34.00;37.30;;;;;;4956790;28;20416;-64
2022/08/12 10:51:17;;;;;;;2.10;2.00;;;34.20;37.50;;;;;;4956647;28;20445;-68
2022/08/12 10:53:47;;;;;;;2.23;2.13;;;34.10;37.00;;;;;;4956093;28;20421;-68
2022/08/12 10:56:14;;;;;;;2.33;2.20;;;33.80;37.50;;;;;;4956297;28;20960;-67
2022/08/12 10:58:40;;;;;;;1.87;1.77;;;33.60;37.60;;;;;;4956708;28;20387;-68
2022/08/12 11:01:09;;;;;;;1.80;1.70;;;33.50;37.90;;;;;;4956448;29;20416;-68
2022/08/12 11:03:41;;;;;;;1.83;1.73;;;33.40;37.60;;;;;;4956159;28;20256;-67
2022/08/12 11:06:09;;;;;;;1.90;1.80;;;33.10;37.70;;;;;;4955000;29;20535;-67
2022/08/12 11:08:37;;;;;;;1.97;1.87;;;32.90;38.10;;;;;;4956406;28;20392;-67
2022/08/12 11:11:07;;;;;;;2.00;1.90;;;32.80;38.40;;;;;;4954631;29;20479;-66
2022/08/12 11:13:36;;;;;;;1.90;1.80;;;32.60;37.60;;;;;;4955710;28;20464;-65
2022/08/12 11:16:04;;;;;;;3.10;2.03;;;32.20;38.30;;;;;;4956451;28;20383;-66
2022/08/12 11:18:29;;;;;;;1.80;1.70;;;31.90;38.40;;;;;;4956275;28;20456;-67
2022/08/12 11:20:55;;;;;;;2.13;2.03;;;31.40;39.70;;;;;;4956142;28;20429;-66
2022/08/12 11:23:21;;;;;;;1.73;1.63;;;30.80;39.80;;;;;;4954339;28;20763;-65
2022/08/12 11:25:48;;;;;;;1.80;1.70;;;30.30;39.20;;;;;;4955852;28;20180;-65
2022/08/12 11:28:14;;;;;;;2.30;2.10;;;30.10;40.10;;;;;;4955930;28;20579;-66
2022/08/12 11:30:40;;;;;;;1.70;1.60;;;29.80;40.60;;;;;;4955651;28;20463;-65
2022/08/12 11:33:07;;;;;;;5.40;1.57;;;29.50;40.80;;;;;;4955494;28;20419;-64
2022/08/12 11:35:35;;;;;;;1.90;1.80;;;29.20;41.00;;;;;;4955802;28;20893;-65
2022/08/12 11:38:03;;;;;;;1.90;1.80;;;28.90;41.50;;;;;;4955873;28;20474;-66
2022/08/12 11:40:29;;;;;;;1.90;1.80;;;28.70;40.80;;;;;;4955494;28;20746;-66
2022/08/12 11:42:59;;;;;;;1.40;1.40;;;28.50;41.10;;;;;;4955246;28;20429;-64
2022/08/12 11:45:29;;;;;;;1.60;1.50;;;28.30;41.60;;;;;;4955601;28;20426;-65
2022/08/12 11:47:55;;;;;;;1.90;1.80;;;28.30;42.20;;;;;;4955273;28;20419;-66
2022/08/12 11:50:22;;;;;;;1.70;1.57;;;28.40;42.20;;;;;;4955489;28;21061;-66
2022/08/12 11:52:49;;;;;;;1.90;1.80;;;28.30;42.30;;;;;;4955165;28;20409;-65
2022/08/12 11:55:15;;;;;;;2.00;1.70;;;28.30;42.70;;;;;;4955039;28;20858;-65
2022/08/12 11:57:52;;;;;;;2.83;1.60;;;28.30;42.70;;;;;;4955470;28;20407;-65
2022/08/12 12:00:18;;;;;;;1.83;1.73;;;28.40;43.00;;;;;;4955650;28;20397;-64
2022/08/12 12:02:44;;;;;;;1.77;1.67;;;28.50;43.60;;;;;;4954833;28;20422;-65
2022/08/12 12:05:10;;;;;;;2.00;1.90;;;28.70;43.00;;;;;;4955104;28;20849;-65
2022/08/12 12:07:39;;;;;;;1.97;1.87;;;28.70;42.80;;;;;;4955521;28;20254;-64
2022/08/12 12:10:06;;;;;;;1.73;1.63;;;28.90;43.10;;;;;;4955118;28;20242;-65
2022/08/12 12:12:31;;;;;;;1.83;1.73;;;29.00;42.10;;;;;;4954014;28;20413;-65
2022/08/12 12:14:57;;;;;;;2.10;2.00;;;29.20;42.00;;;;;;4955057;29;20439;-65
2022/08/12 12:17:24;;;;;;;2.37;2.03;;;29.10;42.40;;;;;;4955990;28;20191;-65
2022/08/12 12:19:51;;;;;;;1.53;1.43;;;29.00;42.90;;;;;;4954069;29;20496;-66
2022/08/12 12:22:17;;;;;;;2.17;1.97;;;29.00;42.80;;;;;;4953593;29;20398;-66
2022/08/12 12:24:45;;;;;;;1.90;1.80;;;29.10;43.50;;;;;;4954879;28;20495;-66
2022/08/12 12:27:11;;;;;;;2.50;2.40;;;29.20;43.20;;;;;;4954871;28;20770;-66
2022/08/12 12:29:36;;;;;;;1.70;1.60;;;29.10;43.50;;;;;;4955186;28;20422;-66
2022/08/12 12:32:02;;;;;;;2.10;1.70;;;29.00;43.40;;;;;;4954123;28;20196;-66
2022/08/12 12:34:28;;;;;;;2.27;2.10;;;29.00;43.40;;;;;;4954202;28;20594;-66
2022/08/12 12:36:53;;;;;;;2.20;2.03;;;28.90;43.70;;;;;;4955125;29;20209;-66
2022/08/12 12:39:19;;;;;;;2.20;2.10;;;28.80;43.90;;;;;;4954930;29;20175;-66
2022/08/12 12:41:45;;;;;;;2.33;2.23;;;28.70;43.60;;;;;;4955138;29;20203;-66
2022/08/12 12:44:10;;;;;;;2.20;2.00;;;28.60;43.90;;;;;;4954374;29;20748;-66
2022/08/12 12:46:36;;;;;;;3.90;1.97;;;28.40;44.00;;;;;;4954804;29;20630;-65
2022/08/12 12:49:01;;;;;;;1.90;1.80;;;28.30;43.70;;;;;;4955099;28;20183;-64
2022/08/12 12:51:27;;;;;;;1.97;1.87;;;28.20;43.90;;;;;;4954996;28;20248;-65
2022/08/12 12:53:54;;;;;;;2.50;2.10;;;28.10;44.20;;;;;;4954798;28;20191;-65
2022/08/12 12:56:21;;;;;;;1.80;1.70;;;28.10;44.60;;;;;;4954948;28;20182;-65
2022/08/12 12:58:49;;;;;;;2.33;1.70;;;28.10;44.20;;;;;;4954943;28;20520;-66
2022/08/12 13:01:25;;;;;;;2.17;2.07;;;28.30;44.00;;;;;;4954984;28;20411;-65
2022/08/12 13:03:55;;;;;;;2.07;1.97;;;28.60;44.00;;;;;;4955512;28;20446;-65
2022/08/12 13:06:28;;;;;;;4.40;2.10;;;28.80;43.10;;;;;;4958550;28;20457;-65
2022/08/12 13:08:55;;;;;;;1.63;1.53;;;28.80;42.50;;;;;;4958607;28;20419;-65
2022/08/12 13:11:21;;;;;;;2.90;1.83;;;28.60;42.60;;;;;;4958149;28;20556;-65
2022/08/12 13:13:52;;;;;;;2.10;2.00;;;28.50;43.20;;;;;;4958197;28;20854;-65
2022/08/12 13:16:20;;;;;;;2.60;1.90;;;28.40;43.60;;;;;;4958557;28;20420;-65
2022/08/12 13:18:50;;;;;;;2.23;2.13;;;28.40;43.20;;;;;;4958583;28;20819;-64
2022/08/12 13:21:19;;;;;;;1.60;1.60;;;28.50;42.50;;;;;;4958495;28;20388;-65
2022/08/12 13:23:49;;;;;;;1.80;1.70;;;28.60;42.70;;;;;;4957928;28;20412;-65
2022/08/12 13:26:17;;;;;;;1.67;1.57;;;28.60;42.90;;;;;;4957985;28;20430;-65
2022/08/12 13:28:49;;;;;;;1.90;1.80;;;28.60;43.00;;;;;;4958244;28;20419;-65
2022/08/12 13:31:15;;;;;;;1.63;1.57;;;28.60;42.80;;;;;;4958465;28;20454;-63
2022/08/12 13:33:41;;;;;;;2.50;2.07;;;28.40;42.70;;;;;;4957736;28;20406;-64
2022/08/12 13:36:09;;;;;;;1.97;1.87;;;28.30;42.70;;;;;;4958282;28;20411;-64
2022/08/12 13:38:38;;;;;;;2.03;1.40;;;28.30;43.00;;;;;;4957930;28;20393;-66
2022/08/12 13:41:08;;;;;;;2.13;2.03;;;28.30;43.10;;;;;;4957625;28;20429;-65
2022/08/12 13:43:34;;;;;;;1.87;1.77;;;28.40;43.00;;;;;;4957676;28;20412;-65
2022/08/12 13:46:00;;;;;;;2.07;1.97;;;28.50;43.20;;;;;;4958064;28;20534;-65
2022/08/12 13:48:27;;;;;;;1.90;1.80;;;28.60;43.00;;;;;;4957973;28;20418;-66
2022/08/12 13:50:52;;;;;;;1.80;1.70;;;28.70;42.90;;;;;;4956710;29;20449;-65
2022/08/12 13:53:18;;;;;;;3.67;2.10;;;28.90;43.20;;;;;;4957321;29;20418;-65
2022/08/12 13:55:50;;;;;;;1.73;1.63;;;28.90;43.00;;;;;;4957418;29;20204;-65
2022/08/12 13:58:18;;;;;;;1.67;1.57;;;28.90;43.00;;;;;;4957612;28;20444;-65
2022/08/12 14:00:45;;;;;;;6.53;2.23;;;28.80;42.70;;;;;;4957475;28;20474;-65
2022/08/12 14:03:13;;;;;;;1.90;1.80;;;28.70;43.20;;;;;;4957382;28;20390;-65
2022/08/12 14:05:39;;;;;;;1.80;1.70;;;28.60;43.60;;;;;;4957483;28;20846;-65
2022/08/12 14:08:08;;;;;;;1.67;1.57;;;28.50;43.20;;;;;;4957561;28;20422;-65
2022/08/12 14:10:36;;;;;;;2.00;1.90;;;28.40;43.20;;;;;;4957019;28;20436;-65
2022/08/12 14:13:08;;;;;;;1.90;1.80;;;28.40;43.40;;;;;;4957023;28;20476;-65
2022/08/12 14:15:35;;;;;;;1.27;1.27;;;28.50;42.70;;;;;;4956290;28;20403;-65
2022/08/12 14:18:13;;;;;;;2.10;1.90;;;28.50;42.50;;;;;;4956233;29;20392;-65
2022/08/12 14:20:41;;;;;;;2.07;1.70;;;28.60;43.20;;;;;;4957466;28;20419;-65
2022/08/12 14:23:08;;;;;;;1.50;1.47;;;28.60;42.90;;;;;;4956725;28;20394;-66
2022/08/12 14:25:34;;;;;;;4.77;2.30;;;28.70;42.90;;;;;;4957074;28;20760;-65
2022/08/12 14:28:14;;;;;;;1.80;1.70;;;28.80;43.00;;;;;;4957366;28;20394;-65
2022/08/12 14:31:01;;;;;;;2.37;2.17;;;29.00;42.60;;;;;;4957055;28;20214;-65
2022/08/12 14:33:32;;;;;;;2.10;2.00;;;29.20;42.00;;;;;;4956727;28;20414;-65
2022/08/12 14:35:59;;;;;;;2.20;2.10;;;29.20;41.80;;;;;;4957119;28;20511;-66
2022/08/12 14:38:27;;;;;;;2.53;2.00;;;29.20;42.00;;;;;;4955788;29;20771;-66
2022/08/12 14:40:59;;;;;;;1.80;1.70;;;29.20;41.70;;;;;;4955158;29;20421;-65
2022/08/12 14:43:29;;;;;;;2.00;1.90;;;29.10;41.90;;;;;;4956386;28;20415;-66
2022/08/12 14:45:55;;;;;;;1.60;1.50;;;29.00;41.60;;;;;;4956910;28;20873;-65
2022/08/12 14:48:21;;;;;;;1.60;1.50;;;28.90;41.50;;;;;;4956773;29;20418;-66
2022/08/12 14:50:49;;;;;;;1.30;1.30;;;29.00;41.90;;;;;;4956803;28;20784;-66
2022/08/12 14:53:16;;;;;;;1.83;1.73;;;29.10;42.10;;;;;;4956144;28;20416;-66
2022/08/12 14:55:44;;;;;;;1.40;1.40;;;29.00;42.20;;;;;;4956413;28;20417;-65
2022/08/12 14:58:10;;;;;;;3.43;1.40;;;28.80;42.20;;;;;;4955362;28;20528;-64
2022/08/12 15:03:26;;;;;;;1.50;1.50;;;28.50;42.50;;;;;;4955396;28;20213;-66
2022/08/12 15:05:57;;;;;;;1.67;1.57;;;28.40;42.60;;;;;;4954022;28;20923;-65
2022/08/12 15:08:28;;;;;;;1.60;1.50;;;28.20;42.60;;;;;;4955045;28;20487;-65
2022/08/12 15:10:55;;;;;;;1.73;1.40;;;28.00;43.00;;;;;;4955460;28;20472;-66
2022/08/12 15:13:22;;;;;;;1.60;1.50;;;27.80;43.30;;;;;;4955469;28;20530;-66
2022/08/12 15:15:48;;;;;;;1.83;1.73;;;27.60;43.50;;;;;;4956156;28;20761;-65
2022/08/12 15:18:16;;;;;;;1.00;1.00;;;27.50;43.50;;;;;;4954994;29;20402;-65
2022/08/12 15:20:42;;;;;;;1.40;1.30;;;27.40;43.90;;;;;;4956248;28;20811;-65
2022/08/12 15:23:09;;;;;;;1.60;1.50;;;27.50;44.20;;;;;;4955745;28;20425;-65
2022/08/12 15:25:36;;;;;;;1.80;1.70;;;27.60;44.30;;;;;;4955919;28;20188;-65
2022/08/12 15:28:05;;;;;;;1.90;1.63;;;27.80;43.50;;;;;;4955963;28;20847;-65
2022/08/12 15:30:32;;;;;;;1.80;1.70;;;28.00;43.00;;;;;;4955839;28;20458;-65
2022/08/12 15:32:57;;;;;;;1.67;1.57;;;28.10;43.20;;;;;;4955653;28;20429;-65
2022/08/12 15:35:26;;;;;;;1.43;1.37;;;28.40;42.40;;;;;;4955709;28;20437;-65
2022/08/12 15:38:01;;;;;;;1.93;1.50;;;28.50;42.20;;;;;;4955821;28;20229;-65
2022/08/12 15:40:28;;;;;;;1.23;1.23;;;28.60;42.60;;;;;;4955690;28;20795;-65
2022/08/12 15:42:56;;;;;;;3.40;1.80;;;28.60;42.80;;;;;;4955609;28;20458;-65
2022/08/12 15:45:22;;;;;;;1.40;1.40;;;28.60;42.60;;;;;;4955754;28;20451;-65
2022/08/12 15:47:51;;;;;;;1.83;1.77;;;28.50;42.40;;;;;;4955549;28;20799;-65
2022/08/12 15:50:22;;;;;;;1.50;1.40;;;28.30;42.60;;;;;;4955579;28;20464;-65
2022/08/12 15:52:49;;;;;;;4.50;1.53;;;28.20;42.40;;;;;;4955268;28;20391;-65
2022/08/12 15:55:15;;;;;;;1.30;1.30;;;27.90;42.60;;;;;;4955221;28;20440;-65
2022/08/12 15:57:48;;;;;;;1.70;1.60;;;27.80;42.90;;;;;;4955531;28;20446;-65
2022/08/12 16:00:14;;;;;;;1.40;1.30;;;27.70;43.20;;;;;;4955727;28;20412;-65
2022/08/12 16:02:44;;;;;;;1.70;1.60;;;27.60;43.00;;;;;;4955366;28;20419;-65
2022/08/12 16:05:10;;;;;;;1.73;1.63;;;27.60;43.30;;;;;;4955286;28;20435;-65
2022/08/12 16:07:35;;;;;;;1.63;1.60;;;27.50;43.20;;;;;;4955916;28;20405;-65
2022/08/12 16:10:01;;;;;;;1.40;1.30;;;27.40;43.50;;;;;;4955031;28;20205;-66
2022/08/12 16:12:28;;;;;;;1.37;1.37;;;27.40;43.90;;;;;;4955023;29;20204;-65
2022/08/12 16:14:56;;;;;;;1.37;1.27;;;27.30;44.20;;;;;;4955251;28;20204;-65
2022/08/12 16:17:22;;;;;;;1.50;1.40;;;27.20;44.60;;;;;;4954727;28;20956;-65
2022/08/12 16:19:48;;;;;;;1.23;1.13;;;27.20;44.80;;;;;;4955381;28;20405;-65
2022/08/12 16:22:14;;;;;;;1.57;1.47;;;27.10;44.80;;;;;;4955105;28;20427;-68
2022/08/12 16:24:42;;;;;;;2.50;1.90;;;27.20;45.10;;;;;;4955238;28;20428;-66
2022/08/12 16:27:08;;;;;;;4.53;1.80;;;27.20;44.80;;;;;;4955383;28;20420;-66
2022/08/12 16:29:38;;;;;;;1.53;1.43;;;27.10;45.00;;;;;;4955126;28;20409;-65
2022/08/12 16:32:05;;;;;;;1.40;1.40;;;27.20;45.00;;;;;;4955110;28;20411;-65
2022/08/12 16:34:35;;;;;;;1.33;1.23;;;27.10;45.00;;;;;;4954681;28;20428;-65
2022/08/12 16:37:03;;;;;;;1.77;1.67;;;27.00;44.90;;;;;;4954904;28;20795;-65
2022/08/12 16:39:34;;;;;;;1.10;1.10;;;27.00;45.50;;;;;;4957158;28;20508;-64
2022/08/12 16:42:00;;;;;;;1.80;1.70;;;27.00;45.30;;;;;;4958147;29;20407;-65
2022/08/12 16:44:28;;;;;;;1.40;1.30;;;27.00;44.80;;;;;;4958572;28;20441;-64
2022/08/12 16:46:54;;;;;;;1.40;1.33;;;27.00;44.80;;;;;;4958382;28;20424;-66
2022/08/12 16:49:21;;;;;;;3.03;1.47;;;27.00;44.80;;;;;;4958924;28;20819;-65
2022/08/12 16:51:50;;;;;;;1.50;1.40;;;27.00;44.40;;;;;;4958896;28;20489;-65
2022/08/12 16:54:20;;;;;;;1.80;1.33;;;27.00;44.50;;;;;;4958218;28;20460;-64
2022/08/12 16:56:49;;;;;;;2.87;1.37;;;27.00;44.50;;;;;;4957216;29;20873;-65
2022/08/12 16:59:18;;;;;;;1.87;1.43;;;26.90;44.60;;;;;;4958824;28;20386;-65
2022/08/12 17:01:44;;;;;;;1.30;1.30;;;26.90;44.70;;;;;;4958325;28;20440;-65
2022/08/12 17:04:11;;;;;;;3.03;1.20;;;26.80;44.60;;;;;;4958222;28;20906;-64
2022/08/12 17:06:42;;;;;;;1.40;1.33;;;26.90;44.70;;;;;;4958420;28;20440;-65
2022/08/12 17:09:11;;;;;;;1.33;1.23;;;26.80;44.80;;;;;;4958670;28;20451;-64
2022/08/12 17:11:38;;;;;;;1.80;1.70;;;26.80;44.90;;;;;;4958340;28;20474;-65
2022/08/12 17:14:05;;;;;;;1.60;1.50;;;26.80;45.10;;;;;;4957994;28;20417;-65
2022/08/12 17:16:34;;;;;;;2.00;1.40;;;26.70;44.80;;;;;;4958187;28;20395;-65
2022/08/12 17:19:01;;;;;;;1.10;1.10;;;26.80;44.30;;;;;;4958286;28;20427;-64
2022/08/12 17:21:29;;;;;;;1.30;1.20;;;26.80;43.90;;;;;;4958450;28;20415;-65
2022/08/12 17:24:00;;;;;;;1.17;1.17;;;26.70;43.90;;;;;;4957933;28;20428;-65
2022/08/12 17:26:29;;;;;;;1.40;1.40;;;26.70;44.00;;;;;;4958398;28;20440;-65